createdAt,value
2023-04-29T00:00:18.028Z,12.20
2023-04-29T00:00:50.814Z,12.20
2023-04-29T00:01:23.983Z,12.20
2023-04-29T00:01:58.879Z,12.30
2023-04-29T00:02:32.436Z,12.30
2023-04-29T00:03:04.434Z,12.30
2023-04-29T00:03:36.512Z,12.30
2023-04-29T00:04:09.671Z,12.30
2023-04-29T00:04:41.885Z,12.30
2023-04-29T00:05:14.313Z,12.30
2023-04-29T00:05:47.357Z,12.30
2023-04-29T00:06:19.372Z,12.20
2023-04-29T00:06:51.160Z,12.20
2023-04-29T00:07:23.907Z,12.20
2023-04-29T00:07:55.740Z,12.20
2023-04-29T00:08:27.807Z,12.20
2023-04-29T00:09:00.532Z,12.20
2023-04-29T00:09:32.355Z,12.20
2023-04-29T00:10:04.936Z,12.20
2023-04-29T00:10:37.771Z,12.10
2023-04-29T00:11:10.891Z,12.20
2023-04-29T00:11:42.717Z,12.20
2023-04-29T00:12:15.507Z,12.30
2023-04-29T00:12:47.333Z,12.20
2023-04-29T00:13:19.297Z,12.20
2023-04-29T00:13:52.061Z,12.20
2023-04-29T00:14:24.567Z,12.20
2023-04-29T00:14:56.488Z,12.10
2023-04-29T00:15:28.383Z,12.10
2023-04-29T00:16:01.156Z,12.10
2023-04-29T00:16:34.300Z,12.10
2023-04-29T00:17:06.184Z,12.10
2023-04-29T00:17:39.112Z,12.10
2023-04-29T00:18:11.069Z,12.20
2023-04-29T00:18:42.921Z,12.10
2023-04-29T00:19:16.101Z,12.10
2023-04-29T00:19:48.138Z,12.10
2023-04-29T00:20:20.232Z,12.10
2023-04-29T00:20:53.022Z,12.10
2023-04-29T00:21:24.893Z,12.10
2023-04-29T00:21:56.713Z,12.10
2023-04-29T00:22:29.969Z,12.10
2023-04-29T00:23:01.946Z,12.10
2023-04-29T00:23:33.864Z,12.10
2023-04-29T00:24:07.126Z,12.10
2023-04-29T00:24:38.945Z,12.10
2023-04-29T00:25:12.193Z,12.10
2023-04-29T00:25:44.972Z,12.10
2023-04-29T00:26:16.787Z,12.10
2023-04-29T00:26:48.740Z,12.10
2023-04-29T00:27:21.469Z,12.10
2023-04-29T00:27:53.280Z,12.10
2023-04-29T00:28:25.273Z,12.10
2023-04-29T00:28:58.033Z,12.10
2023-04-29T00:29:29.893Z,12.10
2023-04-29T00:30:01.855Z,12.10
2023-04-29T00:30:35.438Z,12.10
2023-04-29T00:31:07.435Z,12.10
2023-04-29T00:31:41.707Z,12.10
2023-04-29T00:32:13.509Z,12.10
2023-04-29T00:32:45.418Z,12.10
2023-04-29T00:33:18.267Z,12.10
2023-04-29T00:33:50.155Z,12.00
2023-04-29T00:34:22.288Z,12.10
2023-04-29T00:34:55.247Z,12.00
2023-04-29T00:35:27.108Z,12.00
2023-04-29T00:35:58.887Z,12.00
2023-04-29T00:36:32.305Z,12.00
2023-04-29T00:37:04.102Z,12.00
2023-04-29T00:37:35.905Z,12.00
2023-04-29T00:38:08.669Z,12.00
2023-04-29T00:38:40.464Z,12.00
2023-04-29T00:39:15.255Z,12.00
2023-04-29T00:39:48.237Z,12.00
2023-04-29T00:40:20.305Z,12.00
2023-04-29T00:40:52.320Z,12.00
2023-04-29T00:41:25.554Z,12.00
2023-04-29T00:41:57.493Z,12.00
2023-04-29T00:42:29.647Z,12.00
2023-04-29T00:43:01.453Z,12.00
2023-04-29T00:43:34.195Z,12.00
2023-04-29T00:44:06.495Z,12.00
2023-04-29T00:44:38.292Z,12.00
2023-04-29T00:45:12.422Z,12.00
2023-04-29T00:45:45.825Z,11.90
2023-04-29T00:46:17.699Z,11.90
2023-04-29T00:46:51.818Z,12.00
2023-04-29T00:47:23.694Z,11.90
2023-04-29T00:47:56.029Z,12.00
2023-04-29T00:48:28.906Z,11.90
2023-04-29T00:49:01.384Z,12.00
2023-04-29T00:49:34.213Z,12.00
2023-04-29T00:50:07.718Z,12.00
2023-04-29T00:50:39.549Z,12.00
2023-04-29T00:51:12.559Z,12.00
2023-04-29T00:51:44.816Z,12.00
2023-04-29T00:52:17.758Z,12.00
2023-04-29T00:52:51.724Z,12.00
2023-04-29T00:53:23.675Z,12.00
2023-04-29T00:53:55.624Z,12.00
2023-04-29T00:54:28.670Z,12.00
2023-04-29T00:55:01.328Z,12.00
2023-04-29T00:55:33.890Z,12.00
2023-04-29T00:56:07.494Z,12.20
2023-04-29T00:56:41.793Z,12.00
2023-04-29T00:57:14.783Z,12.10
2023-04-29T00:57:49.579Z,12.00
2023-04-29T00:58:22.193Z,12.10
2023-04-29T00:58:55.493Z,12.00
2023-04-29T00:59:32.074Z,12.00
2023-04-29T01:00:05.501Z,12.00
2023-04-29T01:00:38.870Z,12.00
2023-04-29T01:01:11.031Z,12.00
2023-04-29T01:01:44.621Z,12.00
2023-04-29T01:02:19.920Z,12.00
2023-04-29T01:02:54.013Z,12.00
2023-04-29T01:03:28.623Z,12.10
2023-04-29T01:04:01.942Z,12.10
2023-04-29T01:04:33.991Z,12.10
2023-04-29T01:05:06.383Z,12.10
2023-04-29T01:05:39.248Z,12.10
2023-04-29T01:06:23.207Z,12.10
2023-04-29T01:07:09.915Z,12.10
2023-04-29T01:07:59.953Z,12.10
2023-04-29T01:08:41.590Z,12.10
2023-04-29T01:09:36.508Z,12.10
2023-04-29T01:10:14.758Z,12.10
2023-04-29T01:10:54.388Z,12.10
2023-04-29T01:11:35.256Z,12.00
2023-04-29T01:12:15.558Z,12.00
2023-04-29T01:12:55.201Z,12.00
2023-04-29T01:13:30.923Z,12.10
2023-04-29T01:14:03.798Z,12.10
2023-04-29T01:14:38.847Z,12.10
2023-04-29T01:15:17.943Z,12.10
2023-04-29T01:15:59.601Z,12.10
2023-04-29T01:16:38.890Z,12.10
2023-04-29T01:17:14.878Z,12.10
2023-04-29T01:17:51.873Z,12.10
2023-04-29T01:18:30.437Z,12.10
2023-04-29T01:19:07.344Z,12.10
2023-04-29T01:19:45.737Z,12.10
2023-04-29T01:20:20.233Z,12.10
2023-04-29T01:20:52.677Z,12.10
2023-04-29T01:21:25.345Z,12.10
2023-04-29T01:21:58.106Z,12.10
2023-04-29T01:22:29.865Z,12.10
2023-04-29T01:23:02.702Z,12.10
2023-04-29T01:23:35.871Z,12.10
2023-04-29T01:24:07.687Z,12.10
2023-04-29T01:24:40.483Z,12.10
2023-04-29T01:25:12.922Z,12.10
2023-04-29T01:25:45.105Z,12.10
2023-04-29T01:26:18.986Z,12.10
2023-04-29T01:26:56.188Z,12.10
2023-04-29T01:27:31.758Z,12.10
2023-04-29T01:28:11.943Z,12.10
2023-04-29T01:28:54.563Z,12.10
2023-04-29T01:29:44.000Z,12.10
2023-04-29T01:30:28.991Z,12.10
2023-04-29T01:31:07.413Z,12.10
2023-04-29T01:31:53.818Z,12.10
2023-04-29T01:32:34.642Z,12.10
2023-04-29T01:33:21.592Z,12.10
2023-04-29T01:34:08.922Z,12.10
2023-04-29T01:34:49.523Z,12.10
2023-04-29T01:35:39.174Z,12.10
2023-04-29T01:36:23.886Z,12.10
2023-04-29T01:37:04.890Z,12.10
2023-04-29T01:37:45.326Z,12.10
2023-04-29T01:38:29.478Z,12.10
2023-04-29T01:39:09.687Z,12.10
2023-04-29T01:39:46.470Z,12.10
2023-04-29T01:40:26.738Z,12.10
2023-04-29T01:41:07.236Z,12.10
2023-04-29T01:41:44.560Z,12.10
2023-04-29T01:42:25.118Z,12.10
2023-04-29T01:43:01.595Z,12.10
2023-04-29T01:43:37.924Z,12.10
2023-04-29T01:44:15.437Z,12.10
2023-04-29T01:44:49.384Z,12.10
2023-04-29T01:45:23.934Z,12.10
2023-04-29T01:45:57.298Z,12.10
2023-04-29T01:46:29.532Z,12.20
2023-04-29T01:47:03.142Z,12.10
2023-04-29T01:47:37.596Z,12.10
2023-04-29T01:48:10.350Z,12.10
2023-04-29T01:48:43.447Z,12.10
2023-04-29T01:49:15.242Z,12.10
2023-04-29T01:49:47.223Z,12.10
2023-04-29T01:50:21.175Z,12.10
2023-04-29T01:50:52.955Z,12.10
2023-04-29T01:51:24.776Z,12.10
2023-04-29T01:51:57.597Z,12.10
2023-04-29T01:52:29.516Z,12.10
2023-04-29T01:53:01.300Z,12.10
2023-04-29T01:53:34.083Z,12.10
2023-04-29T01:54:07.268Z,12.10
2023-04-29T01:54:39.224Z,12.10
2023-04-29T01:55:12.333Z,12.10
2023-04-29T01:55:44.168Z,12.10
2023-04-29T01:56:16.157Z,12.10
2023-04-29T01:56:49.457Z,12.10
2023-04-29T01:57:21.317Z,12.10
2023-04-29T01:57:53.136Z,12.10
2023-04-29T01:58:25.997Z,12.10
2023-04-29T01:58:57.792Z,12.10
2023-04-29T01:59:31.474Z,12.10
2023-04-29T02:00:05.121Z,12.10
2023-04-29T02:00:38.025Z,12.10
2023-04-29T02:01:10.356Z,12.10
2023-04-29T02:01:43.654Z,12.10
2023-04-29T02:02:15.786Z,12.10
2023-04-29T02:02:47.671Z,12.10
2023-04-29T02:03:20.652Z,12.10
2023-04-29T02:03:52.796Z,12.10
2023-04-29T02:04:25.155Z,12.10
2023-04-29T02:04:58.258Z,12.10
2023-04-29T02:05:32.390Z,12.20
2023-04-29T02:06:06.918Z,12.20
2023-04-29T02:06:38.772Z,12.20
2023-04-29T02:07:10.620Z,12.20
2023-04-29T02:07:44.626Z,12.20
2023-04-29T02:08:16.702Z,12.20
2023-04-29T02:08:48.970Z,12.20
2023-04-29T02:09:23.081Z,12.20
2023-04-29T02:09:55.094Z,12.20
2023-04-29T02:10:27.835Z,12.20
2023-04-29T02:10:59.879Z,12.20
2023-04-29T02:11:32.711Z,12.20
2023-04-29T02:12:05.369Z,12.20
2023-04-29T02:12:37.226Z,12.20
2023-04-29T02:13:11.995Z,12.20
2023-04-29T02:13:43.804Z,12.20
2023-04-29T02:14:15.724Z,12.20
2023-04-29T02:14:48.750Z,12.20
2023-04-29T02:15:21.084Z,12.20
2023-04-29T02:15:53.055Z,12.20
2023-04-29T02:16:25.906Z,12.20
2023-04-29T02:16:57.827Z,12.20
2023-04-29T02:17:29.756Z,12.20
2023-04-29T02:18:02.593Z,12.30
2023-04-29T02:18:34.445Z,12.20
2023-04-29T02:19:06.290Z,12.20
2023-04-29T02:19:38.218Z,12.20
2023-04-29T02:20:11.613Z,12.20
2023-04-29T02:20:43.548Z,12.30
2023-04-29T02:21:15.803Z,12.30
2023-04-29T02:21:48.645Z,12.30
2023-04-29T02:22:20.827Z,12.30
2023-04-29T02:22:52.626Z,12.30
2023-04-29T02:23:25.473Z,12.30
2023-04-29T02:23:57.672Z,12.30
2023-04-29T02:24:31.854Z,12.30
2023-04-29T02:25:03.920Z,12.30
2023-04-29T02:25:36.300Z,12.30
2023-04-29T02:26:09.674Z,12.30
2023-04-29T02:26:42.498Z,12.30
2023-04-29T02:27:14.360Z,12.30
2023-04-29T02:27:46.471Z,12.30
2023-04-29T02:28:19.238Z,12.30
2023-04-29T02:28:52.428Z,12.30
2023-04-29T02:29:26.346Z,12.30
2023-04-29T02:29:59.101Z,12.30
2023-04-29T02:30:30.894Z,12.30
2023-04-29T02:31:02.922Z,12.30
2023-04-29T02:31:36.122Z,12.30
2023-04-29T02:32:07.967Z,12.30
2023-04-29T02:32:39.908Z,12.30
2023-04-29T02:33:12.803Z,12.30
2023-04-29T02:33:44.638Z,12.30
2023-04-29T02:34:16.436Z,12.30
2023-04-29T02:34:49.245Z,12.30
2023-04-29T02:35:21.520Z,12.30
2023-04-29T02:35:53.314Z,12.30
2023-04-29T02:36:26.631Z,12.30
2023-04-29T02:36:58.531Z,12.30
2023-04-29T02:37:30.322Z,12.30
2023-04-29T02:38:02.129Z,12.30
2023-04-29T02:38:34.926Z,12.30
2023-04-29T02:39:06.686Z,12.30
2023-04-29T02:39:39.903Z,12.30
2023-04-29T02:40:13.674Z,12.30
2023-04-29T02:40:46.587Z,12.30
2023-04-29T02:41:18.547Z,12.30
2023-04-29T02:41:51.399Z,12.30
2023-04-29T02:42:23.582Z,12.30
2023-04-29T02:42:55.373Z,12.30
2023-04-29T02:43:30.853Z,12.40
2023-04-29T02:44:02.672Z,12.40
2023-04-29T02:44:34.477Z,12.30
2023-04-29T02:45:08.761Z,12.40
2023-04-29T02:45:40.747Z,12.40
2023-04-29T02:46:12.851Z,12.40
2023-04-29T02:46:46.258Z,12.40
2023-04-29T02:47:18.072Z,12.50
2023-04-29T02:47:49.900Z,12.40
2023-04-29T02:48:22.704Z,12.40
2023-04-29T02:48:54.592Z,12.40
2023-04-29T02:49:26.647Z,12.40
2023-04-29T02:49:59.462Z,12.40
2023-04-29T02:50:31.288Z,12.40
2023-04-29T02:51:03.159Z,12.40
2023-04-29T02:51:35.922Z,12.40
2023-04-29T02:52:07.781Z,12.40
2023-04-29T02:52:41.742Z,12.40
2023-04-29T02:53:13.661Z,12.40
2023-04-29T02:53:45.470Z,12.40
2023-04-29T02:54:18.449Z,12.40
2023-04-29T02:54:51.737Z,12.40
2023-04-29T02:55:24.621Z,12.40
2023-04-29T02:55:57.070Z,12.50
2023-04-29T02:56:29.671Z,12.40
2023-04-29T02:57:02.690Z,12.40
2023-04-29T02:57:34.585Z,12.40
2023-04-29T02:58:06.422Z,12.40
2023-04-29T02:58:39.165Z,12.40
2023-04-29T02:59:11.011Z,12.40
2023-04-29T02:59:44.132Z,12.40
2023-04-29T03:00:16.084Z,12.40
2023-04-29T03:00:48.248Z,12.40
2023-04-29T03:01:21.908Z,12.40
2023-04-29T03:01:54.507Z,12.50
2023-04-29T03:02:26.454Z,12.40
2023-04-29T03:02:58.762Z,12.40
2023-04-29T03:03:32.009Z,12.40
2023-04-29T03:04:04.350Z,12.50
2023-04-29T03:04:36.399Z,12.50
2023-04-29T03:05:10.103Z,12.50
2023-04-29T03:05:41.952Z,12.50
2023-04-29T03:06:13.753Z,12.50
2023-04-29T03:06:46.562Z,12.50
2023-04-29T03:07:18.483Z,12.50
2023-04-29T03:07:50.299Z,12.50
2023-04-29T03:08:23.084Z,12.50
2023-04-29T03:08:54.833Z,12.50
2023-04-29T03:09:26.863Z,12.50
2023-04-29T03:10:01.553Z,12.50
2023-04-29T03:10:33.433Z,12.50
2023-04-29T03:11:05.581Z,12.50
2023-04-29T03:11:38.795Z,12.50
2023-04-29T03:12:11.544Z,12.50
2023-04-29T03:12:43.372Z,12.50
2023-04-29T03:13:16.162Z,12.50
2023-04-29T03:13:48.068Z,12.60
2023-04-29T03:14:20.931Z,12.50
2023-04-29T03:14:52.844Z,12.50
2023-04-29T03:15:24.661Z,12.50
2023-04-29T03:15:58.545Z,12.60
2023-04-29T03:16:31.592Z,12.50
2023-04-29T03:17:04.802Z,12.60
2023-04-29T03:17:36.758Z,12.60
2023-04-29T03:18:09.671Z,12.60
2023-04-29T03:18:41.487Z,12.60
2023-04-29T03:19:13.321Z,12.60
2023-04-29T03:19:46.066Z,12.60
2023-04-29T03:20:17.939Z,12.60
2023-04-29T03:20:49.875Z,12.60
2023-04-29T03:21:22.768Z,12.60
2023-04-29T03:21:54.570Z,12.60
2023-04-29T03:22:26.640Z,12.60
2023-04-29T03:23:00.728Z,12.60
2023-04-29T03:23:32.531Z,12.50
2023-04-29T03:24:04.715Z,12.50
2023-04-29T03:24:37.511Z,12.50
2023-04-29T03:25:10.847Z,12.60
2023-04-29T03:25:42.725Z,12.50
2023-04-29T03:26:15.460Z,12.60
2023-04-29T03:26:47.342Z,12.60
2023-04-29T03:27:19.701Z,12.60
2023-04-29T03:27:51.492Z,12.60
2023-04-29T03:28:24.298Z,12.60
2023-04-29T03:28:56.094Z,12.60
2023-04-29T03:29:28.014Z,12.60
2023-04-29T03:30:00.797Z,12.60
2023-04-29T03:30:32.863Z,12.60
2023-04-29T03:31:05.207Z,12.70
2023-04-29T03:31:38.030Z,12.70
2023-04-29T03:32:09.849Z,12.70
2023-04-29T03:32:41.682Z,12.70
2023-04-29T03:33:13.540Z,12.70
2023-04-29T03:33:46.282Z,12.70
2023-04-29T03:34:18.079Z,12.70
2023-04-29T03:34:49.881Z,12.70
2023-04-29T03:35:21.821Z,12.60
2023-04-29T03:35:54.814Z,12.70
2023-04-29T03:36:27.858Z,12.70
2023-04-29T03:36:59.627Z,12.70
2023-04-29T03:37:31.442Z,12.70
2023-04-29T03:38:04.200Z,12.70
2023-04-29T03:38:36.149Z,12.70
2023-04-29T03:39:07.975Z,12.70
2023-04-29T03:39:40.968Z,12.70
2023-04-29T03:40:14.649Z,12.70
2023-04-29T03:40:46.556Z,12.70
2023-04-29T03:41:19.440Z,12.70
2023-04-29T03:41:51.283Z,12.70
2023-04-29T03:42:23.086Z,12.70
2023-04-29T03:42:55.871Z,12.70
2023-04-29T03:43:27.748Z,12.70
2023-04-29T03:44:00.801Z,12.70
2023-04-29T03:44:33.738Z,12.70
2023-04-29T03:45:06.848Z,12.70
2023-04-29T03:45:38.621Z,12.70
2023-04-29T03:46:11.666Z,12.70
2023-04-29T03:46:43.533Z,12.70
2023-04-29T03:47:15.349Z,12.70
2023-04-29T03:47:48.279Z,12.70
2023-04-29T03:48:21.392Z,12.70
2023-04-29T03:48:55.921Z,12.70
2023-04-29T03:49:28.697Z,12.60
2023-04-29T03:50:00.600Z,12.70
2023-04-29T03:50:32.427Z,12.70
2023-04-29T03:51:05.543Z,12.70
2023-04-29T03:51:37.436Z,12.70
2023-04-29T03:52:09.383Z,12.70
2023-04-29T03:52:42.276Z,12.70
2023-04-29T03:53:14.285Z,12.70
2023-04-29T03:53:46.185Z,12.70
2023-04-29T03:54:19.098Z,12.70
2023-04-29T03:54:51.043Z,12.70
2023-04-29T03:55:24.190Z,12.70
2023-04-29T03:55:57.047Z,12.70
2023-04-29T03:56:28.839Z,12.80
2023-04-29T03:57:00.854Z,12.80
2023-04-29T03:57:33.701Z,12.70
2023-04-29T03:58:05.633Z,12.80
2023-04-29T03:58:37.731Z,12.80
2023-04-29T03:59:10.585Z,12.80
2023-04-29T03:59:42.568Z,12.90
2023-04-29T04:00:15.073Z,12.80
2023-04-29T04:00:47.926Z,12.80
2023-04-29T04:01:19.842Z,12.90
2023-04-29T04:01:54.038Z,12.80
2023-04-29T04:02:27.136Z,12.80
2023-04-29T04:02:59.418Z,12.80
2023-04-29T04:03:32.636Z,12.80
2023-04-29T04:04:05.836Z,12.80
2023-04-29T04:04:38.021Z,12.80
2023-04-29T04:05:10.929Z,12.80
2023-04-29T04:05:43.872Z,12.70
2023-04-29T04:06:15.846Z,12.70
2023-04-29T04:06:51.558Z,12.70
2023-04-29T04:07:24.393Z,12.70
2023-04-29T04:07:56.411Z,12.70
2023-04-29T04:08:28.212Z,12.70
2023-04-29T04:09:00.989Z,12.70
2023-04-29T04:09:33.445Z,12.70
2023-04-29T04:10:06.116Z,12.70
2023-04-29T04:10:40.209Z,12.70
2023-04-29T04:11:14.980Z,12.70
2023-04-29T04:11:46.970Z,12.70
2023-04-29T04:12:19.737Z,12.70
2023-04-29T04:12:51.521Z,12.70
2023-04-29T04:13:23.314Z,12.70
2023-04-29T04:13:56.054Z,12.70
2023-04-29T04:14:27.821Z,12.70
2023-04-29T04:15:00.560Z,12.70
2023-04-29T04:15:32.330Z,12.70
2023-04-29T04:16:04.892Z,12.70
2023-04-29T04:16:37.865Z,12.70
2023-04-29T04:17:09.913Z,12.70
2023-04-29T04:17:41.761Z,12.70
2023-04-29T04:18:14.605Z,12.70
2023-04-29T04:18:46.435Z,12.70
2023-04-29T04:19:18.262Z,12.70
2023-04-29T04:19:51.239Z,12.80
2023-04-29T04:20:23.212Z,12.70
2023-04-29T04:20:55.034Z,12.80
2023-04-29T04:21:28.574Z,12.70
2023-04-29T04:22:00.741Z,12.70
2023-04-29T04:22:32.639Z,12.80
2023-04-29T04:23:05.398Z,12.80
2023-04-29T04:23:40.279Z,12.80
2023-04-29T04:24:12.055Z,12.80
2023-04-29T04:24:44.832Z,12.80
2023-04-29T04:25:16.706Z,12.70
2023-04-29T04:25:50.061Z,12.70
2023-04-29T04:26:22.988Z,12.70
2023-04-29T04:26:54.874Z,12.80
2023-04-29T04:27:26.644Z,12.70
2023-04-29T04:27:59.386Z,12.80
2023-04-29T04:28:31.205Z,12.70
2023-04-29T04:29:03.029Z,12.70
2023-04-29T04:29:35.777Z,12.80
2023-04-29T04:30:08.762Z,12.80
2023-04-29T04:30:40.772Z,12.80
2023-04-29T04:31:14.629Z,12.80
2023-04-29T04:31:47.306Z,12.80
2023-04-29T04:32:20.228Z,12.80
2023-04-29T04:32:52.067Z,12.80
2023-04-29T04:33:23.974Z,12.70
2023-04-29T04:33:57.672Z,12.70
2023-04-29T04:34:29.450Z,12.70
2023-04-29T04:35:02.448Z,12.80
2023-04-29T04:35:34.261Z,12.80
2023-04-29T04:36:06.785Z,12.80
2023-04-29T04:36:39.707Z,12.70
2023-04-29T04:37:11.964Z,12.70
2023-04-29T04:37:44.764Z,12.70
2023-04-29T04:38:17.329Z,12.70
2023-04-29T04:38:49.312Z,12.70
2023-04-29T04:39:22.077Z,12.70
2023-04-29T04:39:54.129Z,12.70
2023-04-29T04:40:26.223Z,12.70
2023-04-29T04:41:00.501Z,12.70
2023-04-29T04:41:32.681Z,12.70
2023-04-29T04:42:04.945Z,12.70
2023-04-29T04:42:37.659Z,12.70
2023-04-29T04:43:09.480Z,12.70
2023-04-29T04:43:41.372Z,12.70
2023-04-29T04:44:14.342Z,12.80
2023-04-29T04:44:46.372Z,12.70
2023-04-29T04:45:18.147Z,12.80
2023-04-29T04:45:50.086Z,12.80
2023-04-29T04:46:22.861Z,12.80
2023-04-29T04:46:54.639Z,12.70
2023-04-29T04:47:26.676Z,12.80
2023-04-29T04:47:59.538Z,12.70
2023-04-29T04:48:31.479Z,12.80
2023-04-29T04:49:03.349Z,12.80
2023-04-29T04:49:36.119Z,12.80
2023-04-29T04:50:08.947Z,12.80
2023-04-29T04:50:40.735Z,12.90
2023-04-29T04:51:14.537Z,12.90
2023-04-29T04:51:47.041Z,12.90
2023-04-29T04:52:21.178Z,12.90
2023-04-29T04:52:55.667Z,12.90
2023-04-29T04:53:27.470Z,12.90
2023-04-29T04:53:59.314Z,12.90
2023-04-29T04:54:32.064Z,13.00
2023-04-29T04:55:04.181Z,13.00
2023-04-29T04:55:36.833Z,12.90
2023-04-29T04:56:11.232Z,12.90
2023-04-29T04:56:43.126Z,13.00
2023-04-29T04:57:14.972Z,13.00
2023-04-29T04:57:47.729Z,13.00
2023-04-29T04:58:19.515Z,13.00
2023-04-29T04:58:51.482Z,13.00
2023-04-29T04:59:24.325Z,13.00
2023-04-29T04:59:56.168Z,13.00
2023-04-29T05:00:28.013Z,13.00
2023-04-29T05:01:01.475Z,13.00
2023-04-29T05:01:34.106Z,13.00
2023-04-29T05:02:06.125Z,13.00
2023-04-29T05:02:39.093Z,13.00
2023-04-29T05:03:11.124Z,13.10
2023-04-29T05:03:43.248Z,13.00
2023-04-29T05:04:16.626Z,13.00
2023-04-29T05:04:48.541Z,13.10
2023-04-29T05:05:20.497Z,13.10
2023-04-29T05:05:56.384Z,13.10
2023-04-29T05:06:28.262Z,13.10
2023-04-29T05:07:00.057Z,13.10
2023-04-29T05:07:35.715Z,13.10
2023-04-29T05:08:07.556Z,13.10
2023-04-29T05:08:39.408Z,13.20
2023-04-29T05:09:12.160Z,13.10
2023-04-29T05:09:43.916Z,13.10
2023-04-29T05:10:15.835Z,13.10
2023-04-29T05:10:48.762Z,13.10
2023-04-29T05:11:22.169Z,13.10
2023-04-29T05:11:54.262Z,13.10
2023-04-29T05:12:30.582Z,13.10
2023-04-29T05:13:02.622Z,13.20
2023-04-29T05:13:34.458Z,13.20
2023-04-29T05:14:07.521Z,13.20
2023-04-29T05:14:39.462Z,13.20
2023-04-29T05:15:11.621Z,13.20
2023-04-29T05:15:44.553Z,13.20
2023-04-29T05:16:17.995Z,13.20
2023-04-29T05:16:51.455Z,13.20
2023-04-29T05:17:24.461Z,13.30
2023-04-29T05:17:56.447Z,13.30
2023-04-29T05:18:28.298Z,13.50
2023-04-29T05:19:01.102Z,13.30
2023-04-29T05:19:32.889Z,13.40
2023-04-29T05:20:06.135Z,13.40
2023-04-29T05:20:39.047Z,13.40
2023-04-29T05:21:10.934Z,13.40
2023-04-29T05:21:42.783Z,13.40
2023-04-29T05:22:15.578Z,13.40
2023-04-29T05:22:47.394Z,13.40
2023-04-29T05:23:19.214Z,13.40
2023-04-29T05:23:52.006Z,13.40
2023-04-29T05:24:23.887Z,13.40
2023-04-29T05:25:02.398Z,13.40
2023-04-29T05:25:35.240Z,13.50
2023-04-29T05:26:07.086Z,13.50
2023-04-29T05:26:43.230Z,13.50
2023-04-29T05:27:15.219Z,13.50
2023-04-29T05:27:47.032Z,13.40
2023-04-29T05:28:19.875Z,13.40
2023-04-29T05:28:51.825Z,13.40
2023-04-29T05:29:23.620Z,13.40
2023-04-29T05:29:56.818Z,13.40
2023-04-29T05:30:28.646Z,13.40
2023-04-29T05:31:00.492Z,13.40
2023-04-29T05:31:33.426Z,13.40
2023-04-29T05:32:05.552Z,13.40
2023-04-29T05:32:37.529Z,13.40
2023-04-29T05:33:11.143Z,13.40
2023-04-29T05:33:42.960Z,13.50
2023-04-29T05:34:15.052Z,13.50
2023-04-29T05:34:47.819Z,13.50
2023-04-29T05:35:19.717Z,13.50
2023-04-29T05:35:51.522Z,13.50
2023-04-29T05:36:24.333Z,13.50
2023-04-29T05:36:57.235Z,13.60
2023-04-29T05:37:31.837Z,13.60
2023-04-29T05:38:04.694Z,13.60
2023-04-29T05:38:36.474Z,13.60
2023-04-29T05:39:08.270Z,13.70
2023-04-29T05:39:41.065Z,13.60
2023-04-29T05:40:13.148Z,13.70
2023-04-29T05:40:44.938Z,13.70
2023-04-29T05:41:17.684Z,13.80
2023-04-29T05:41:50.901Z,13.70
2023-04-29T05:42:23.282Z,13.70
2023-04-29T05:42:55.154Z,13.70
2023-04-29T05:43:28.347Z,13.70
2023-04-29T05:44:00.366Z,13.70
2023-04-29T05:44:33.073Z,13.60
2023-04-29T05:45:06.636Z,13.70
2023-04-29T05:45:38.410Z,13.70
2023-04-29T05:46:10.272Z,13.70
2023-04-29T05:46:43.164Z,13.70
2023-04-29T05:47:15.144Z,13.70
2023-04-29T05:47:47.018Z,13.70
2023-04-29T05:48:19.813Z,13.70
2023-04-29T05:48:51.685Z,13.70
2023-04-29T05:49:23.529Z,13.70
2023-04-29T05:49:57.028Z,13.70
2023-04-29T05:50:28.819Z,13.60
2023-04-29T05:51:00.798Z,13.70
2023-04-29T05:51:33.565Z,13.60
2023-04-29T05:52:06.530Z,13.70
2023-04-29T05:52:38.567Z,13.70
2023-04-29T05:53:11.309Z,13.70
2023-04-29T05:53:43.123Z,13.70
2023-04-29T05:54:15.452Z,13.70
2023-04-29T05:54:48.209Z,13.70
2023-04-29T05:55:20.393Z,13.70
2023-04-29T05:55:52.201Z,13.70
2023-04-29T05:56:25.074Z,13.70
2023-04-29T05:56:58.271Z,13.60
2023-04-29T05:57:30.324Z,13.60
2023-04-29T05:58:02.161Z,13.70
2023-04-29T05:58:35.028Z,13.70
2023-04-29T05:59:06.834Z,13.70
2023-04-29T05:59:38.635Z,13.70
2023-04-29T06:00:12.437Z,13.60
2023-04-29T06:00:44.377Z,13.60
2023-04-29T06:01:17.317Z,13.60
2023-04-29T06:01:50.094Z,13.60
2023-04-29T06:02:22.205Z,13.70
2023-04-29T06:02:58.796Z,13.70
2023-04-29T06:03:31.233Z,13.70
2023-04-29T06:04:03.293Z,13.70
2023-04-29T06:04:36.414Z,13.70
2023-04-29T06:05:09.421Z,13.70
2023-04-29T06:05:42.204Z,13.60
2023-04-29T06:06:16.257Z,13.70
2023-04-29T06:06:48.426Z,13.70
2023-04-29T06:07:20.594Z,13.70
2023-04-29T06:07:53.520Z,13.70
2023-04-29T06:08:26.077Z,13.70
2023-04-29T06:08:57.948Z,13.70
2023-04-29T06:09:30.732Z,13.70
2023-04-29T06:10:02.731Z,13.80
2023-04-29T06:10:36.880Z,13.70
2023-04-29T06:11:09.648Z,13.70
2023-04-29T06:11:41.572Z,13.70
2023-04-29T06:12:14.711Z,13.70
2023-04-29T06:12:48.972Z,13.70
2023-04-29T06:13:20.819Z,13.70
2023-04-29T06:13:52.629Z,13.70
2023-04-29T06:14:25.628Z,13.70
2023-04-29T06:14:57.549Z,13.70
2023-04-29T06:15:29.429Z,13.70
2023-04-29T06:16:02.387Z,13.70
2023-04-29T06:16:34.356Z,13.80
2023-04-29T06:17:06.457Z,13.80
2023-04-29T06:17:39.219Z,13.80
2023-04-29T06:18:11.106Z,13.80
2023-04-29T06:18:42.895Z,13.80
2023-04-29T06:19:15.670Z,13.80
2023-04-29T06:19:47.485Z,13.80
2023-04-29T06:20:19.687Z,13.80
2023-04-29T06:20:52.437Z,13.80
2023-04-29T06:21:24.277Z,13.80
2023-04-29T06:21:56.092Z,13.80
2023-04-29T06:22:28.894Z,13.80
2023-04-29T06:23:00.780Z,13.80
2023-04-29T06:23:32.706Z,13.80
2023-04-29T06:24:05.880Z,13.90
2023-04-29T06:24:37.706Z,13.90
2023-04-29T06:25:09.973Z,13.90
2023-04-29T06:25:42.826Z,13.90
2023-04-29T06:26:15.055Z,13.80
2023-04-29T06:26:46.968Z,13.80
2023-04-29T06:27:21.088Z,13.80
2023-04-29T06:27:52.915Z,13.80
2023-04-29T06:28:24.897Z,13.80
2023-04-29T06:28:57.669Z,13.80
2023-04-29T06:29:29.509Z,13.90
2023-04-29T06:30:01.654Z,13.90
2023-04-29T06:30:34.440Z,13.90
2023-04-29T06:31:06.389Z,14.00
2023-04-29T06:31:38.493Z,14.00
2023-04-29T06:32:11.488Z,14.00
2023-04-29T06:32:43.332Z,14.00
2023-04-29T06:33:15.229Z,14.00
2023-04-29T06:33:47.997Z,14.00
2023-04-29T06:34:19.857Z,14.10
2023-04-29T06:34:51.964Z,14.00
2023-04-29T06:35:24.681Z,14.10
2023-04-29T06:35:56.603Z,14.10
2023-04-29T06:36:28.497Z,14.10
2023-04-29T06:37:01.357Z,14.10
2023-04-29T06:37:34.112Z,14.10
2023-04-29T06:38:09.021Z,14.10
2023-04-29T06:38:40.795Z,14.10
2023-04-29T06:39:13.547Z,14.10
2023-04-29T06:39:45.402Z,14.10
2023-04-29T06:40:17.405Z,14.10
2023-04-29T06:40:50.252Z,14.10
2023-04-29T06:41:22.093Z,14.10
2023-04-29T06:41:53.886Z,14.00
2023-04-29T06:42:28.504Z,14.00
2023-04-29T06:43:00.292Z,14.00
2023-04-29T06:43:32.137Z,14.00
2023-04-29T06:44:05.040Z,14.00
2023-04-29T06:44:36.937Z,14.00
2023-04-29T06:45:09.357Z,14.00
2023-04-29T06:45:42.507Z,14.10
2023-04-29T06:46:14.349Z,14.10
2023-04-29T06:46:46.415Z,14.10
2023-04-29T06:47:20.055Z,14.10
2023-04-29T06:47:52.204Z,14.10
2023-04-29T06:48:25.371Z,14.10
2023-04-29T06:48:57.197Z,14.10
2023-04-29T06:49:29.059Z,14.10
2023-04-29T06:50:01.909Z,14.10
2023-04-29T06:50:33.842Z,14.10
2023-04-29T06:51:05.801Z,14.10
2023-04-29T06:51:38.666Z,14.10
2023-04-29T06:52:10.520Z,14.10
2023-04-29T06:52:42.338Z,14.10
2023-04-29T06:53:15.110Z,14.10
2023-04-29T06:53:48.113Z,14.10
2023-04-29T06:54:19.937Z,14.10
2023-04-29T06:54:52.719Z,14.10
2023-04-29T06:55:24.566Z,14.10
2023-04-29T06:55:56.391Z,14.30
2023-04-29T06:56:29.199Z,14.20
2023-04-29T06:57:00.978Z,14.20
2023-04-29T06:57:34.169Z,14.10
2023-04-29T06:58:06.986Z,14.10
2023-04-29T06:58:39.409Z,14.10
2023-04-29T06:59:12.505Z,14.10
2023-04-29T06:59:45.303Z,14.10
2023-04-29T07:00:19.331Z,14.10
2023-04-29T07:00:52.203Z,14.10
2023-04-29T07:01:25.112Z,14.10
2023-04-29T07:01:57.003Z,14.10
2023-04-29T07:02:28.994Z,14.10
2023-04-29T07:03:02.026Z,14.10
2023-04-29T07:03:33.965Z,14.10
2023-04-29T07:04:06.100Z,14.10
2023-04-29T07:04:38.881Z,14.10
2023-04-29T07:05:11.185Z,14.10
2023-04-29T07:05:45.369Z,14.00